Virgil, South Dakota
Current Conditions -  °F | °C
As of 12:55 AM on Wednesday 22 Oct 2014 (Local Time) from KHON Reporting Station
Clear Clear  
Wind Chill: 16°   Ceiling: Unl
Heat Index: 16°   Visibility: 10mi
Dew Point:   Wind: 15mph
Humidity: 47%   Direction: 160°SSE
Pressure: 29.88"   Gusts: 28mph
Location:  44.29°N, 98.42°W
Report Text: KHON 220555Z AUTO 16013G24KT 10SM CLR 16/04 A2988 RMK AO2 PK WND 15026/0516 SLP115 T01560044 10222 20156 402720072 58004
Loading
Personal Weather Stations






























Interactive Weather Map
Tropical Storm Tracking
New forecast layout! Learn more

10-Day Weather Forecast

Advertisements
Track Severe Weather on mobile